Terminal Aerodrome Forecast
Issued by NWS

Home | Current Version | Previous Version | Text Only | Print | Product List | Glossary On
Versions: 1 2 3 4 5 6 7 8 9 10 11 12 13 14 15 16 17
000
FTUS41 KGYX 222300
TAFHIE
TAF
KHIE 222322Z 2300/2324 VRB04KT P6SM FEW050
     FM230800 00000KT 2SM BR BKN001
     FM231600 25006KT P6SM VCSH BKN050
     FM231900 26006KT 4SM -TSRA OVC040CB=

USA.gov is the U.S. government's official web portal to all federal, state and local government web resources and services.